Time,TemperatureF,DewpointF,PressureIn,WindDirection,WindDirectionDegrees,WindSpeedMPH,WindSpeedGustMPH,Humidity,HourlyPrecipIn,Conditions,Clouds,dailyrainin,SoftwareType,DateUTC
2013-01-08 00:03:00,28.9,28.7,30.09,SW,225,5.8,-999.0,99,-99.99,,,0.00,Acu-Link.com,2013-01-08 06:03:00,
2013-01-08 00:18:00,28.9,28.7,30.09,WSW,247,7.3,-999.0,99,-99.99,,,0.00,Acu-Link.com,2013-01-08 06:18:00,
2013-01-08 00:33:00,28.9,28.7,30.08,SSW,202,7.8,-999.0,99,-99.99,,,0.00,Acu-Link.com,2013-01-08 06:33:00,
2013-01-08 00:48:00,29.3,29.1,30.09,SW,225,5.3,-999.0,99,-99.99,,,0.00,Acu-Link.com,2013-01-08 06:48:00,
2013-01-08 01:03:00,29.3,29.1,30.09,WSW,247,5.3,-999.0,99,-99.99,,,0.00,Acu-Link.com,2013-01-08 07:03:00,
2013-01-08 01:18:00,29.3,29.1,30.09,SW,225,6.8,-999.0,99,-99.99,,,0.00,Acu-Link.com,2013-01-08 07:18:00,
2013-01-08 01:33:00,28.8,28.6,30.09,SW,225,2.7,-999.0,99,-99.99,,,0.00,Acu-Link.com,2013-01-08 07:33:00,
2013-01-08 01:48:00,27.9,27.7,30.09,SSE,157,0.0,-999.0,99,-99.99,,,0.00,Acu-Link.com,2013-01-08 07:48:00,
2013-01-08 02:03:00,27.3,27.1,30.10,SSE,157,2.2,-999.0,99,-99.99,,,0.00,Acu-Link.com,2013-01-08 08:03:00,
2013-01-08 02:19:00,26.8,26.6,30.11,SW,225,0.0,-999.0,99,-99.99,,,0.00,Acu-Link.com,2013-01-08 08:19:00,
2013-01-08 02:34:00,26.6,26.4,30.11,South,180,0.0,-999.0,99,-99.99,,,0.00,Acu-Link.com,2013-01-08 08:34:00,
2013-01-08 02:49:00,26.2,26.0,30.11,SSW,202,0.0,-999.0,99,-99.99,,,0.00,Acu-Link.com,2013-01-08 08:49:00,
2013-01-08 03:09:00,26.1,25.9,30.11,West,270,0.0,-999.0,99,-99.99,,,0.00,Acu-Link.com,2013-01-08 09:09:00,
2013-01-08 03:24:00,25.9,25.7,30.11,South,180,3.2,-999.0,99,-99.99,,,0.00,Acu-Link.com,2013-01-08 09:24:00,
2013-01-08 03:39:00,25.7,25.5,30.10,South,180,2.7,-999.0,99,-99.99,,,0.00,Acu-Link.com,2013-01-08 09:39:00,
2013-01-08 03:54:00,25.5,25.3,30.10,WNW,292,0.0,-999.0,99,-99.99,,,0.00,Acu-Link.com,2013-01-08 09:54:00,
2013-01-08 04:09:00,26.1,25.9,30.11,South,180,0.0,-999.0,99,-99.99,,,0.00,Acu-Link.com,2013-01-08 10:09:00,
2013-01-08 04:24:00,25.5,25.3,30.10,SSW,202,0.0,-999.0,99,-99.99,,,0.00,Acu-Link.com,2013-01-08 10:24:00,
2013-01-08 04:40:00,25.3,25.1,30.09,South,180,2.7,-999.0,99,-99.99,,,0.00,Acu-Link.com,2013-01-08 10:40:00,
2013-01-08 04:55:00,25.5,25.3,30.10,SW,225,3.2,-999.0,99,-99.99,,,0.00,Acu-Link.com,2013-01-08 10:55:00,
2013-01-08 05:10:00,25.3,25.1,30.10,SE,135,2.2,-999.0,99,-99.99,,,0.00,Acu-Link.com,2013-01-08 11:10:00,
2013-01-08 05:25:00,25.2,25.0,30.10,SSW,202,2.7,-999.0,99,-99.99,,,0.00,Acu-Link.com,2013-01-08 11:25:00,
2013-01-08 05:40:00,25.2,25.0,30.10,SSE,157,2.2,-999.0,99,-99.99,,,0.00,Acu-Link.com,2013-01-08 11:40:00,
2013-01-08 05:55:00,24.8,24.6,30.11,South,180,2.7,-999.0,99,-99.99,,,0.00,Acu-Link.com,2013-01-08 11:55:00,
2013-01-08 06:10:00,24.8,24.6,30.11,SW,225,3.7,-999.0,99,-99.99,,,0.00,Acu-Link.com,2013-01-08 12:10:00,
2013-01-08 06:25:00,24.8,24.6,30.11,SSE,157,3.7,-999.0,99,-99.99,,,0.00,Acu-Link.com,2013-01-08 12:25:00,
2013-01-08 06:40:00,24.6,24.4,30.11,SSW,202,4.2,-999.0,99,-99.99,,,0.00,Acu-Link.com,2013-01-08 12:40:00,
2013-01-08 06:56:00,24.3,24.1,30.11,South,180,2.7,-999.0,99,-99.99,,,0.00,Acu-Link.com,2013-01-08 12:56:00,
2013-01-08 07:11:00,24.6,24.4,30.11,SSW,202,4.2,-999.0,99,-99.99,,,0.00,Acu-Link.com,2013-01-08 13:11:00,
2013-01-08 07:26:00,24.6,24.4,30.11,SSW,202,6.3,-999.0,99,-99.99,,,0.00,Acu-Link.com,2013-01-08 13:26:00,
2013-01-08 07:41:00,25.2,25.0,30.10,SSW,202,5.3,-999.0,99,-99.99,,,0.00,Acu-Link.com,2013-01-08 13:41:00,
2013-01-08 07:56:00,26.1,25.9,30.10,West,270,4.2,-999.0,99,-99.99,,,0.00,Acu-Link.com,2013-01-08 13:56:00,
2013-01-08 08:11:00,26.6,26.4,30.11,South,180,4.2,-999.0,99,-99.99,,,0.00,Acu-Link.com,2013-01-08 14:11:00,
2013-01-08 08:26:00,27.3,27.1,30.12,WSW,247,6.3,-999.0,99,-99.99,,,0.00,Acu-Link.com,2013-01-08 14:26:00,
2013-01-08 08:41:00,28.9,28.7,30.12,SW,225,7.3,-999.0,99,-99.99,,,0.00,Acu-Link.com,2013-01-08 14:41:00,
2013-01-08 08:56:00,30.6,30.4,30.11,SSW,202,6.3,-999.0,99,-99.99,,,0.00,Acu-Link.com,2013-01-08 14:56:00,
2013-01-08 09:12:00,31.6,31.4,30.12,SW,225,4.2,-999.0,99,-99.99,,,0.00,Acu-Link.com,2013-01-08 15:12:00,
2013-01-08 09:27:00,33.1,32.8,30.12,WSW,247,5.8,-999.0,99,-99.99,,,0.00,Acu-Link.com,2013-01-08 15:27:00,
2013-01-08 09:42:00,34.7,34.4,30.12,SW,225,6.8,-999.0,99,-99.99,,,0.00,Acu-Link.com,2013-01-08 15:42:00,
2013-01-08 09:57:00,35.6,35.3,30.12,WSW,247,4.7,-999.0,99,-99.99,,,0.00,Acu-Link.com,2013-01-08 15:57:00,
2013-01-08 10:12:00,36.3,36.0,30.12,WSW,247,6.8,-999.0,99,-99.99,,,0.00,Acu-Link.com,2013-01-08 16:12:00,
2013-01-08 10:27:00,36.9,36.6,30.13,SSW,202,5.8,-999.0,99,-99.99,,,0.00,Acu-Link.com,2013-01-08 16:27:00,
2013-01-08 10:42:00,38.1,37.8,30.12,SW,225,6.3,-999.0,99,-99.99,,,0.00,Acu-Link.com,2013-01-08 16:42:00,
2013-01-08 10:57:00,38.7,38.4,30.11,SSW,202,7.8,-999.0,99,-99.99,,,0.00,Acu-Link.com,2013-01-08 16:57:00,
2013-01-08 11:12:00,40.8,40.5,30.11,SSW,202,6.3,-999.0,99,-99.99,,,0.00,Acu-Link.com,2013-01-08 17:12:00,
2013-01-08 11:28:00,42.4,42.1,30.09,SW,225,6.8,-999.0,99,-99.99,,,0.00,Acu-Link.com,2013-01-08 17:28:00,
2013-01-08 11:43:00,42.6,42.3,30.08,SW,225,6.3,-999.0,99,-99.99,,,0.00,Acu-Link.com,2013-01-08 17:43:00,
2013-01-08 11:58:00,44.2,43.9,30.07,SSW,202,6.3,-999.0,99,-99.99,,,0.00,Acu-Link.com,2013-01-08 17:58:00,
2013-01-08 12:13:00,42.4,42.1,30.07,WSW,247,5.8,-999.0,99,-99.99,,,0.00,Acu-Link.com,2013-01-08 18:13:00,
2013-01-08 12:28:00,43.2,42.9,30.07,SW,225,8.9,-999.0,99,-99.99,,,0.00,Acu-Link.com,2013-01-08 18:28:00,
2013-01-08 12:43:00,43.3,43.0,30.07,SSW,202,7.3,-999.0,99,-99.99,,,0.00,Acu-Link.com,2013-01-08 18:43:00,
2013-01-08 12:58:00,43.2,42.9,30.07,South,180,6.3,-999.0,99,-99.99,,,0.00,Acu-Link.com,2013-01-08 18:58:00,
2013-01-08 13:13:00,44.2,43.9,30.06,SSW,202,5.8,-999.0,99,-99.99,,,0.00,Acu-Link.com,2013-01-08 19:13:00,
2013-01-08 13:28:00,43.7,43.4,30.07,WSW,247,6.3,-999.0,99,-99.99,,,0.00,Acu-Link.com,2013-01-08 19:28:00,
2013-01-08 13:44:00,43.7,43.4,30.06,WSW,247,6.3,-999.0,99,-99.99,,,0.00,Acu-Link.com,2013-01-08 19:44:00,
2013-01-08 13:59:00,44.2,43.9,30.07,South,180,4.7,-999.0,99,-99.99,,,0.00,Acu-Link.com,2013-01-08 19:59:00,
2013-01-08 14:14:00,44.1,43.8,30.06,WSW,247,4.7,-999.0,99,-99.99,,,0.00,Acu-Link.com,2013-01-08 20:14:00,
2013-01-08 14:29:00,43.9,43.6,30.06,West,270,4.2,-999.0,99,-99.99,,,0.00,Acu-Link.com,2013-01-08 20:29:00,
2013-01-08 14:44:00,43.7,43.4,30.06,SW,225,5.8,-999.0,99,-99.99,,,0.00,Acu-Link.com,2013-01-08 20:44:00,
2013-01-08 14:59:00,43.3,43.0,30.06,ESE,112,8.3,-999.0,99,-99.99,,,0.00,Acu-Link.com,2013-01-08 20:59:00,
2013-01-08 15:14:00,42.4,42.1,30.05,ESE,112,5.3,-999.0,99,-99.99,,,0.00,Acu-Link.com,2013-01-08 21:14:00,
2013-01-08 15:30:00,41.4,41.1,30.05,SSE,157,6.8,-999.0,99,-99.99,,,0.00,Acu-Link.com,2013-01-08 21:30:00,
2013-01-08 15:45:00,40.5,40.2,30.05,WSW,247,6.3,-999.0,99,-99.99,,,0.00,Acu-Link.com,2013-01-08 21:45:00,
2013-01-08 16:00:00,40.3,40.0,30.06,SSW,202,6.3,-999.0,99,-99.99,,,0.00,Acu-Link.com,2013-01-08 22:00:00,
2013-01-08 16:15:00,39.4,39.1,30.05,South,180,4.7,-999.0,99,-99.99,,,0.00,Acu-Link.com,2013-01-08 22:15:00,
2013-01-08 16:30:00,37.9,37.6,30.05,SSW,202,7.8,-999.0,99,-99.99,,,0.00,Acu-Link.com,2013-01-08 22:30:00,
2013-01-08 16:45:00,36.7,36.4,30.05,South,180,2.2,-999.0,99,-99.99,,,0.00,Acu-Link.com,2013-01-08 22:45:00,
2013-01-08 17:00:00,35.6,35.3,30.05,West,270,3.7,-999.0,99,-99.99,,,0.00,Acu-Link.com,2013-01-08 23:00:00,
2013-01-08 17:15:00,35.2,34.9,30.05,SE,135,7.3,-999.0,99,-99.99,,,0.00,Acu-Link.com,2013-01-08 23:15:00,
2013-01-08 17:31:00,34.7,34.4,30.06,South,180,7.3,-999.0,99,-99.99,,,0.00,Acu-Link.com,2013-01-08 23:31:00,
2013-01-08 17:46:00,34.5,34.2,30.05,South,180,6.3,-999.0,99,-99.99,,,0.00,Acu-Link.com,2013-01-08 23:46:00,
2013-01-08 18:01:00,34.3,34.0,30.06,SW,225,7.3,-999.0,99,-99.99,,,0.00,Acu-Link.com,2013-01-09 00:01:00,
2013-01-08 18:16:00,34.5,34.2,30.05,WSW,247,7.3,-999.0,99,-99.99,,,0.00,Acu-Link.com,2013-01-09 00:16:00,
2013-01-08 18:31:00,34.3,34.0,30.07,WSW,247,8.3,-999.0,99,-99.99,,,0.00,Acu-Link.com,2013-01-09 00:31:00,
2013-01-08 18:46:00,34.5,34.2,30.06,SSW,202,7.3,-999.0,99,-99.99,,,0.00,Acu-Link.com,2013-01-09 00:46:00,
2013-01-08 19:01:00,34.3,34.0,30.06,SSE,157,6.3,-999.0,99,-99.99,,,0.00,Acu-Link.com,2013-01-09 01:01:00,
2013-01-08 19:16:00,34.2,33.9,30.05,SSW,202,6.3,-999.0,99,-99.99,,,0.00,Acu-Link.com,2013-01-09 01:16:00,
2013-01-08 19:31:00,34.2,33.9,30.06,South,180,5.8,-999.0,99,-99.99,,,0.00,Acu-Link.com,2013-01-09 01:31:00,
2013-01-08 19:47:00,34.5,34.2,30.05,SW,225,7.8,-999.0,99,-99.99,,,0.00,Acu-Link.com,2013-01-09 01:47:00,
2013-01-08 20:02:00,34.7,34.4,30.06,South,180,5.8,-999.0,99,-99.99,,,0.00,Acu-Link.com,2013-01-09 02:02:00,
2013-01-08 20:17:00,34.5,34.2,30.05,SW,225,5.8,-999.0,99,-99.99,,,0.00,Acu-Link.com,2013-01-09 02:17:00,
2013-01-08 20:32:00,34.5,34.2,30.06,WSW,247,5.3,-999.0,99,-99.99,,,0.00,Acu-Link.com,2013-01-09 02:32:00,
2013-01-08 20:47:00,34.3,34.0,30.06,SSW,202,6.3,-999.0,99,-99.99,,,0.00,Acu-Link.com,2013-01-09 02:47:00,
2013-01-08 21:02:00,34.3,34.0,30.06,SSE,157,6.8,-999.0,99,-99.99,,,0.00,Acu-Link.com,2013-01-09 03:02:00,
2013-01-08 21:17:00,35.2,34.9,30.06,SSW,202,4.7,-999.0,99,-99.99,,,0.00,Acu-Link.com,2013-01-09 03:17:00,
2013-01-08 21:32:00,35.6,35.3,30.05,SW,225,4.7,-999.0,99,-99.99,,,0.00,Acu-Link.com,2013-01-09 03:32:00,
2013-01-08 21:47:00,36.0,35.7,30.05,South,180,8.9,-999.0,99,-99.99,,,0.00,Acu-Link.com,2013-01-09 03:47:00,
2013-01-08 22:03:00,36.3,36.0,30.05,SW,225,7.3,-999.0,99,-99.99,,,0.00,Acu-Link.com,2013-01-09 04:03:00,
2013-01-08 22:18:00,36.9,36.6,30.06,WSW,247,6.3,-999.0,99,-99.99,,,0.00,Acu-Link.com,2013-01-09 04:18:00,
2013-01-08 22:33:00,37.4,37.1,30.05,SSW,202,4.7,-999.0,99,-99.99,,,0.00,Acu-Link.com,2013-01-09 04:33:00,
2013-01-08 22:48:00,37.2,36.9,30.05,SSW,202,4.2,-999.0,99,-99.99,,,0.00,Acu-Link.com,2013-01-09 04:48:00,
2013-01-08 23:03:00,36.5,36.2,30.06,SSW,202,4.7,-999.0,99,-99.99,,,0.00,Acu-Link.com,2013-01-09 05:03:00,
2013-01-08 23:18:00,35.8,35.5,30.05,SSW,202,4.2,-999.0,99,-99.99,,,0.00,Acu-Link.com,2013-01-09 05:18:00,
2013-01-08 23:33:00,35.8,35.5,30.05,SSW,202,5.3,-999.0,99,-99.99,,,0.00,Acu-Link.com,2013-01-09 05:33:00,
2013-01-08 23:48:00,36.0,35.7,30.05,SSW,202,3.2,-999.0,99,-99.99,,,0.00,Acu-Link.com,2013-01-09 05:48:00,